createdAt,value
2023-02-16T00:00:40.638Z,2.01
2023-02-16T00:05:42.405Z,2.02
2023-02-16T00:11:04.989Z,2.00
2023-02-16T00:16:17.036Z,1.98
2023-02-16T00:21:19.300Z,1.97
2023-02-16T00:26:24.070Z,1.96
2023-02-16T00:31:29.233Z,1.95
2023-02-16T00:36:31.291Z,1.94
2023-02-16T00:41:51.200Z,1.88
2023-02-16T00:46:53.433Z,1.86
2023-02-16T00:51:55.348Z,1.86
2023-02-16T00:56:57.869Z,1.87
2023-02-16T01:01:59.721Z,1.86
2023-02-16T01:07:20.390Z,1.87
2023-02-16T01:12:22.843Z,1.86
2023-02-16T01:17:25.088Z,1.85
2023-02-16T01:22:33.958Z,1.83
2023-02-16T01:27:41.257Z,1.82
2023-02-16T01:32:43.194Z,1.80
2023-02-16T01:37:45.022Z,1.76
2023-02-16T01:42:58.224Z,1.75
2023-02-16T01:48:06.124Z,1.73
2023-02-16T01:53:28.803Z,1.71
2023-02-16T01:58:44.732Z,1.69
2023-02-16T02:04:05.375Z,1.69
2023-02-16T02:09:34.138Z,1.67
2023-02-16T02:14:39.688Z,1.64
2023-02-16T02:20:14.513Z,1.63
2023-02-16T02:25:22.399Z,1.62
2023-02-16T02:31:10.735Z,1.63
2023-02-16T02:36:28.404Z,1.60
2023-02-16T02:41:57.454Z,1.58
2023-02-16T02:47:01.349Z,1.58
2023-02-16T02:52:03.897Z,1.55
2023-02-16T02:57:43.849Z,1.53
2023-02-16T03:02:49.917Z,1.48
2023-02-16T03:07:57.607Z,1.49
2023-02-16T03:13:02.028Z,1.47
2023-02-16T03:18:23.847Z,1.46
2023-02-16T03:23:44.198Z,1.44
2023-02-16T03:29:07.987Z,1.43
2023-02-16T03:34:10.150Z,1.42
2023-02-16T03:39:13.211Z,1.41
2023-02-16T03:44:15.619Z,1.42
2023-02-16T03:49:20.704Z,1.42
2023-02-16T03:54:22.586Z,1.42
2023-02-16T03:59:24.505Z,1.41
2023-02-16T04:04:26.793Z,1.41
2023-02-16T04:09:28.762Z,1.43
2023-02-16T04:14:30.613Z,1.43
2023-02-16T04:19:32.368Z,1.43
2023-02-16T04:24:34.194Z,1.45
2023-02-16T04:29:38.850Z,1.45
2023-02-16T04:34:40.892Z,1.45
2023-02-16T04:39:42.821Z,1.46
2023-02-16T04:44:44.783Z,1.44
2023-02-16T04:49:48.094Z,1.38
2023-02-16T04:54:51.750Z,1.33
2023-02-16T04:59:53.559Z,1.30
2023-02-16T05:04:55.314Z,1.30
2023-02-16T05:09:57.768Z,1.31
2023-02-16T05:14:59.523Z,1.33
2023-02-16T05:20:02.017Z,1.36
2023-02-16T05:25:04.185Z,1.39
2023-02-16T05:30:06.596Z,1.42
2023-02-16T05:35:08.476Z,1.43
2023-02-16T05:40:10.922Z,1.45
2023-02-16T05:45:12.897Z,1.46
2023-02-16T05:50:14.992Z,1.49
2023-02-16T05:55:16.934Z,1.51
2023-02-16T06:00:18.995Z,1.57
2023-02-16T06:05:20.897Z,1.75
2023-02-16T06:10:27.141Z,1.85
2023-02-16T06:15:31.845Z,1.87
2023-02-16T06:20:33.944Z,1.88
2023-02-16T06:25:36.302Z,1.92
2023-02-16T06:30:38.372Z,1.93
2023-02-16T06:35:40.175Z,1.95
2023-02-16T06:40:42.025Z,2.02
2023-02-16T06:45:43.913Z,2.12
2023-02-16T06:50:45.932Z,2.17
2023-02-16T06:55:50.922Z,2.28
2023-02-16T07:00:55.502Z,2.40
2023-02-16T07:05:57.301Z,2.56
2023-02-16T07:10:59.169Z,2.68
2023-02-16T07:16:01.107Z,2.72
2023-02-16T07:21:03.267Z,2.77
2023-02-16T07:26:05.419Z,2.77
2023-02-16T07:31:10.215Z,2.79
2023-02-16T07:36:13.479Z,2.81
2023-02-16T07:41:17.409Z,2.87
2023-02-16T07:46:19.217Z,2.97
2023-02-16T07:51:29.242Z,3.08
2023-02-16T07:56:35.673Z,3.15
2023-02-16T08:01:37.864Z,3.25
2023-02-16T08:06:40.333Z,3.32
2023-02-16T08:11:42.277Z,3.41
2023-02-16T08:16:44.267Z,3.60
2023-02-16T08:21:49.532Z,3.79
2023-02-16T08:26:53.859Z,3.97
2023-02-16T08:31:56.931Z,4.13
2023-02-16T08:36:58.909Z,4.23
2023-02-16T08:42:01.990Z,4.45
2023-02-16T08:47:04.114Z,4.71
2023-02-16T08:52:06.359Z,4.97
2023-02-16T08:57:08.661Z,5.20
2023-02-16T09:02:11.558Z,5.35
2023-02-16T09:07:13.888Z,5.49
2023-02-16T09:12:15.817Z,5.70
2023-02-16T09:17:17.642Z,5.90
2023-02-16T09:22:19.648Z,6.09
2023-02-16T09:27:21.514Z,6.29
2023-02-16T09:32:28.054Z,6.48
2023-02-16T09:37:29.903Z,6.65
2023-02-16T09:42:50.635Z,6.80
2023-02-16T09:47:55.206Z,6.91
2023-02-16T09:53:11.722Z,7.06
2023-02-16T09:58:22.207Z,7.17
2023-02-16T10:03:45.955Z,7.22
2023-02-16T10:08:50.362Z,7.28
2023-02-16T10:13:57.440Z,7.37
2023-02-16T10:19:04.236Z,7.52
2023-02-16T10:24:07.741Z,7.64
2023-02-16T10:29:20.013Z,7.77
2023-02-16T10:34:46.478Z,7.86
2023-02-16T10:40:12.860Z,7.90
2023-02-16T10:45:15.941Z,7.98
2023-02-16T10:50:53.787Z,8.06
2023-02-16T10:55:57.017Z,8.13
2023-02-16T11:01:10.474Z,8.25
2023-02-16T11:06:19.219Z,8.35
2023-02-16T11:11:23.065Z,8.41
2023-02-16T11:16:25.894Z,8.49
2023-02-16T11:22:03.295Z,8.58
2023-02-16T11:27:07.022Z,8.64
2023-02-16T11:32:12.262Z,8.68
2023-02-16T11:37:24.472Z,8.75
2023-02-16T11:42:47.219Z,8.79
2023-02-16T11:47:55.815Z,8.81
2023-02-16T11:53:09.659Z,8.84
2023-02-16T11:58:26.117Z,8.87
2023-02-16T12:03:48.980Z,8.90
2023-02-16T12:09:07.075Z,8.91
2023-02-16T12:14:14.867Z,8.92
2023-02-16T12:19:28.290Z,8.96
2023-02-16T12:24:52.556Z,9.03
2023-02-16T12:30:38.884Z,9.09
2023-02-16T12:36:27.017Z,9.16
2023-02-16T12:41:53.638Z,9.21
2023-02-16T12:47:04.808Z,9.24
2023-02-16T12:52:11.532Z,9.28
2023-02-16T12:57:17.460Z,9.31
2023-02-16T13:02:28.724Z,9.35
2023-02-16T13:07:40.304Z,9.38
2023-02-16T13:13:01.084Z,9.43
2023-02-16T13:18:23.205Z,9.50
2023-02-16T13:23:37.042Z,9.53
2023-02-16T13:28:47.773Z,9.56
2023-02-16T13:34:14.745Z,9.59
2023-02-16T13:39:34.672Z,9.63
2023-02-16T13:44:46.153Z,9.67
2023-02-16T13:49:50.446Z,9.70
2023-02-16T13:54:52.570Z,9.73
2023-02-16T14:00:00.542Z,9.73
2023-02-16T14:05:04.220Z,9.78
2023-02-16T14:10:06.688Z,9.77
2023-02-16T14:15:20.625Z,9.78
2023-02-16T14:20:22.437Z,9.80
2023-02-16T14:25:24.272Z,9.78
2023-02-16T14:30:35.662Z,9.76
2023-02-16T14:35:41.512Z,9.71
2023-02-16T14:41:01.188Z,9.67
2023-02-16T14:46:11.044Z,9.61
2023-02-16T14:51:42.171Z,9.57
2023-02-16T14:56:54.319Z,9.51
2023-02-16T15:01:56.969Z,9.49
2023-02-16T15:07:05.228Z,9.48
2023-02-16T15:12:21.927Z,9.44
2023-02-16T15:17:31.887Z,9.37
2023-02-16T15:22:33.989Z,9.26
2023-02-16T15:27:35.783Z,9.20
2023-02-16T15:32:38.083Z,9.15
2023-02-16T15:37:40.641Z,9.04
2023-02-16T15:42:45.356Z,8.94
2023-02-16T15:47:47.222Z,8.84
2023-02-16T15:52:49.186Z,8.74
2023-02-16T15:57:51.289Z,8.63
2023-02-16T16:02:55.838Z,8.54
2023-02-16T16:07:59.514Z,8.45
2023-02-16T16:13:07.493Z,8.38
2023-02-16T16:18:29.346Z,8.34
2023-02-16T16:23:31.129Z,8.25
2023-02-16T16:28:36.698Z,8.21
2023-02-16T16:33:58.777Z,8.17
2023-02-16T16:39:17.096Z,8.13
2023-02-16T16:44:48.093Z,8.12
2023-02-16T16:49:56.395Z,8.09
2023-02-16T16:54:58.239Z,8.03
2023-02-16T17:00:00.007Z,8.01
2023-02-16T17:05:01.784Z,7.98
2023-02-16T17:10:05.309Z,7.99
2023-02-16T17:15:14.486Z,8.03
2023-02-16T17:20:16.947Z,8.05
2023-02-16T17:25:19.459Z,8.03
2023-02-16T17:30:24.604Z,8.01
2023-02-16T17:35:26.606Z,8.03
2023-02-16T17:40:28.487Z,8.04
2023-02-16T17:45:30.366Z,8.06
2023-02-16T17:50:33.159Z,8.08
2023-02-16T17:55:34.968Z,8.10
2023-02-16T18:00:38.240Z,8.09
2023-02-16T18:05:40.268Z,8.10
2023-02-16T18:10:45.219Z,8.06
2023-02-16T18:15:49.317Z,8.04
2023-02-16T18:20:51.226Z,8.04
2023-02-16T18:25:53.178Z,8.04
2023-02-16T18:30:55.150Z,8.06
2023-02-16T18:35:57.679Z,8.08
2023-02-16T18:40:59.626Z,8.10
2023-02-16T18:46:06.543Z,8.15
2023-02-16T18:51:10.027Z,8.17
2023-02-16T18:56:12.525Z,8.17
2023-02-16T19:01:22.732Z,8.16
2023-02-16T19:06:24.977Z,8.17
2023-02-16T19:11:28.893Z,8.18
2023-02-16T19:16:30.863Z,8.19
2023-02-16T19:21:33.137Z,8.16
2023-02-16T19:26:34.930Z,8.15
2023-02-16T19:31:37.207Z,8.16
2023-02-16T19:36:39.644Z,8.13
2023-02-16T19:41:46.240Z,8.14
2023-02-16T19:46:48.096Z,8.12
2023-02-16T19:51:50.613Z,8.12
2023-02-16T19:56:54.197Z,8.13
2023-02-16T20:01:56.011Z,8.12
2023-02-16T20:06:57.973Z,8.13
2023-02-16T20:12:00.021Z,8.15
2023-02-16T20:17:03.855Z,8.17
2023-02-16T20:22:05.708Z,8.16
2023-02-16T20:27:07.599Z,8.14
2023-02-16T20:32:09.508Z,8.16
2023-02-16T20:37:11.454Z,8.15
2023-02-16T20:42:13.506Z,8.15
2023-02-16T20:47:16.024Z,8.16
2023-02-16T20:52:18.005Z,8.16
2023-02-16T20:57:27.141Z,8.17
2023-02-16T21:02:29.481Z,8.18
2023-02-16T21:07:31.244Z,8.21
2023-02-16T21:12:32.999Z,8.23
2023-02-16T21:17:34.825Z,8.24
2023-02-16T21:22:36.708Z,8.26
2023-02-16T21:27:38.608Z,8.26
2023-02-16T21:32:40.373Z,8.26
2023-02-16T21:37:42.550Z,8.26
2023-02-16T21:42:44.605Z,8.24
2023-02-16T21:48:05.694Z,8.25
2023-02-16T21:53:09.268Z,8.26
2023-02-16T21:58:11.659Z,8.29
2023-02-16T22:03:14.356Z,8.30
2023-02-16T22:08:16.208Z,8.32
2023-02-16T22:13:17.993Z,8.34
2023-02-16T22:18:19.739Z,8.37
2023-02-16T22:23:21.558Z,8.39
2023-02-16T22:28:23.444Z,8.42
2023-02-16T22:33:25.357Z,8.43
2023-02-16T22:38:27.122Z,8.45
2023-02-16T22:43:28.845Z,8.46
2023-02-16T22:48:30.616Z,8.48
2023-02-16T22:53:33.085Z,8.48
2023-02-16T22:58:36.116Z,8.49
2023-02-16T23:03:37.982Z,8.51
2023-02-16T23:08:39.696Z,8.51
2023-02-16T23:13:41.478Z,8.49
2023-02-16T23:18:44.644Z,8.50
2023-02-16T23:23:47.479Z,8.45
2023-02-16T23:28:54.769Z,8.41
2023-02-16T23:33:57.169Z,8.39
2023-02-16T23:39:06.849Z,8.37
2023-02-16T23:44:12.131Z,8.37
2023-02-16T23:49:14.150Z,8.38
2023-02-16T23:54:15.887Z,8.37
2023-02-16T23:59:17.617Z,8.38
